Terminal Aerodrome Forecast
Issued by NWS

Home | Current Version | Previous Version | Text Only | Print | Product List | Glossary On
Versions: 1 2 3 4 5 6 7 8 9 10 11 12 13 14 15 16
000
FTUS42 KKEY 031122
TAFMTH
TAF
KMTH 031122Z 0312/0412 10009KT P6SM SCT020
     FM031600 10012G19KT P6SM FEW020=

USA.gov is the U.S. government's official web portal to all federal, state and local government web resources and services.